AAL27 TAPA-TGPY
Flight info
| Callsign | AAL27 |
|---|---|
| Flight time | 0h 54m |
| Altitude | 34000 |
| Route | ANU |
| Aircraft | A21N/M-SDE3FGHIRWY/LB1 |
Departure
| Time | 2026-05-05 21:41 |
|---|---|
| Airport | V. C. Bird International Airport (TAPA) |
Arrival
| Time | 2026-05-05 22:35 |
|---|---|
| Airport | Maurice Bishop International Airport (TGPY) |
| Time | Latitude | Longitude | Altitude | Speed | Heading |
|---|---|---|---|---|---|
| 2026-05-05 21:11 | 17.14021 | -61.79129 | 53 ft | 0 kts | 328° |
| 2026-05-05 21:30 | 17.14021 | -61.79128 | 53 ft | 0 kts | 328° |
| 2026-05-05 21:31 | 17.14013 | -61.79123 | 53 ft | 1 kts | 329° |
| 2026-05-05 21:31 | 17.14001 | -61.79115 | 53 ft | 2 kts | 310° |
| 2026-05-05 21:31 | 17.13993 | -61.79102 | 53 ft | 2 kts | 295° |
| 2026-05-05 21:31 | 17.13988 | -61.79087 | 52 ft | 2 kts | 278° |
| 2026-05-05 21:32 | 17.13987 | -61.79071 | 52 ft | 2 kts | 262° |
| 2026-05-05 21:32 | 17.13991 | -61.79056 | 52 ft | 2 kts | 245° |
| 2026-05-05 21:32 | 17.13995 | -61.79049 | 51 ft | 1 kts | 235° |
| 2026-05-05 21:32 | 17.13998 | -61.79045 | 51 ft | 0 kts | 237° |
| 2026-05-05 21:35 | 17.13997 | -61.79047 | 51 ft | 0 kts | 237° |
| 2026-05-05 21:35 | 17.13995 | -61.79049 | 51 ft | 0 kts | 237° |
| 2026-05-05 21:35 | 17.13989 | -61.79059 | 52 ft | 2 kts | 237° |
| 2026-05-05 21:36 | 17.13972 | -61.79086 | 52 ft | 5 kts | 235° |
| 2026-05-05 21:36 | 17.13935 | -61.79111 | 53 ft | 7 kts | 203° |
| 2026-05-05 21:36 | 17.13880 | -61.79140 | 54 ft | 10 kts | 217° |
| 2026-05-05 21:36 | 17.13833 | -61.79207 | 56 ft | 12 kts | 239° |
| 2026-05-05 21:37 | 17.13786 | -61.79288 | 58 ft | 13 kts | 238° |
| 2026-05-05 21:37 | 17.13731 | -61.79381 | 60 ft | 16 kts | 238° |
| 2026-05-05 21:37 | 17.13668 | -61.79487 | 61 ft | 18 kts | 239° |
| 2026-05-05 21:37 | 17.13599 | -61.79605 | 63 ft | 19 kts | 238° |
| 2026-05-05 21:38 | 17.13522 | -61.79734 | 64 ft | 21 kts | 238° |
| 2026-05-05 21:38 | 17.13468 | -61.79810 | 64 ft | 11 kts | 216° |
| 2026-05-05 21:38 | 17.13380 | -61.79848 | 63 ft | 15 kts | 193° |
| 2026-05-05 21:38 | 17.13284 | -61.79908 | 63 ft | 18 kts | 236° |
| 2026-05-05 21:39 | 17.13211 | -61.80030 | 62 ft | 20 kts | 238° |
| 2026-05-05 21:39 | 17.13117 | -61.80124 | 61 ft | 15 kts | 232° |
| 2026-05-05 21:39 | 17.13133 | -61.80173 | 61 ft | 5 kts | 36° |
| 2026-05-05 21:39 | 17.13145 | -61.80157 | 61 ft | 0 kts | 59° |
| 2026-05-05 21:40 | 17.13145 | -61.80156 | 61 ft | 0 kts | 59° |
| 2026-05-05 21:40 | 17.13150 | -61.80149 | 61 ft | 11 kts | 59° |
| 2026-05-05 21:40 | 17.13342 | -61.79827 | 63 ft | 90 kts | 56° |
| 2026-05-05 21:40 | 17.13796 | -61.79056 | 55 ft | 155 kts | 59° |
| 2026-05-05 21:41 | 17.14411 | -61.78012 | 467 ft | 175 kts | 61° |
| 2026-05-05 21:41 | 17.15019 | -61.76910 | 1238 ft | 178 kts | 63° |
| 2026-05-05 21:41 | 17.15481 | -61.75750 | 2060 ft | 175 kts | 84° |
| 2026-05-05 21:41 | 17.15372 | -61.74480 | 2638 ft | 184 kts | 110° |
| 2026-05-05 21:42 | 17.14517 | -61.73433 | 3087 ft | 205 kts | 146° |
| 2026-05-05 21:42 | 17.13053 | -61.73063 | 3477 ft | 234 kts | 181° |
| 2026-05-05 21:42 | 17.11426 | -61.73589 | 3961 ft | 260 kts | 210° |
| 2026-05-05 21:42 | 17.10082 | -61.74954 | 4606 ft | 279 kts | 235° |
| 2026-05-05 21:43 | 17.09134 | -61.76707 | 5486 ft | 283 kts | 237° |
| 2026-05-05 21:43 | 17.08038 | -61.78426 | 6424 ft | 284 kts | 234° |
| 2026-05-05 21:43 | 17.06896 | -61.80094 | 7287 ft | 287 kts | 233° |
| 2026-05-05 21:43 | 17.05722 | -61.81773 | 8102 ft | 292 kts | 233° |
| 2026-05-05 21:44 | 17.04512 | -61.83481 | 8920 ft | 296 kts | 233° |
| 2026-05-05 21:44 | 17.03270 | -61.85211 | 9725 ft | 299 kts | 233° |
| 2026-05-05 21:44 | 17.01804 | -61.86773 | 10441 ft | 305 kts | 212° |
| 2026-05-05 21:44 | 16.99765 | -61.87500 | 10888 ft | 319 kts | 184° |
| 2026-05-05 21:45 | 16.97518 | -61.87381 | 11307 ft | 334 kts | 172° |
| 2026-05-05 21:45 | 16.95175 | -61.87043 | 11899 ft | 343 kts | 171° |
| 2026-05-05 21:45 | 16.92762 | -61.86718 | 12658 ft | 347 kts | 173° |
| 2026-05-05 21:45 | 16.90367 | -61.86446 | 13370 ft | 350 kts | 174° |
| 2026-05-05 21:46 | 16.87925 | -61.86209 | 14060 ft | 355 kts | 175° |
| 2026-05-05 21:46 | 16.85399 | -61.85992 | 14708 ft | 361 kts | 175° |
| 2026-05-05 21:46 | 16.82902 | -61.85795 | 15332 ft | 367 kts | 176° |
| 2026-05-05 21:46 | 16.80331 | -61.85605 | 15967 ft | 372 kts | 176° |
| 2026-05-05 21:47 | 16.77701 | -61.85416 | 16580 ft | 378 kts | 176° |
| 2026-05-05 21:47 | 16.75097 | -61.85233 | 17203 ft | 382 kts | 176° |
| 2026-05-05 21:47 | 16.72417 | -61.85047 | 17806 ft | 388 kts | 176° |
| 2026-05-05 21:47 | 16.69705 | -61.84860 | 18474 ft | 389 kts | 176° |
| 2026-05-05 21:48 | 16.66977 | -61.84674 | 19130 ft | 391 kts | 176° |
| 2026-05-05 21:48 | 16.64283 | -61.84490 | 19756 ft | 393 kts | 176° |
| 2026-05-05 21:48 | 16.61516 | -61.84301 | 20382 ft | 394 kts | 176° |
| 2026-05-05 21:48 | 16.58764 | -61.84112 | 20978 ft | 396 kts | 176° |
| 2026-05-05 21:49 | 16.56006 | -61.83924 | 21560 ft | 397 kts | 176° |
| 2026-05-05 21:49 | 16.53250 | -61.83736 | 22093 ft | 399 kts | 176° |
| 2026-05-05 21:49 | 16.50482 | -61.83546 | 22644 ft | 400 kts | 176° |
| 2026-05-05 21:49 | 16.47695 | -61.83355 | 23178 ft | 402 kts | 176° |
| 2026-05-05 21:50 | 16.44891 | -61.83163 | 23687 ft | 404 kts | 176° |
| 2026-05-05 21:50 | 16.42035 | -61.82968 | 24171 ft | 407 kts | 176° |
| 2026-05-05 21:50 | 16.39220 | -61.82776 | 24641 ft | 410 kts | 176° |
| 2026-05-05 21:50 | 16.36375 | -61.82582 | 25095 ft | 412 kts | 176° |
| 2026-05-05 21:51 | 16.33486 | -61.82385 | 25536 ft | 415 kts | 176° |
| 2026-05-05 21:51 | 16.30575 | -61.82186 | 25971 ft | 418 kts | 176° |
| 2026-05-05 21:51 | 16.27665 | -61.81988 | 26385 ft | 420 kts | 176° |
| 2026-05-05 21:51 | 16.24739 | -61.81789 | 26795 ft | 423 kts | 176° |
| 2026-05-05 21:52 | 16.18819 | -61.81386 | 27586 ft | 427 kts | 176° |
| 2026-05-05 21:52 | 16.15853 | -61.81184 | 27970 ft | 429 kts | 176° |
| 2026-05-05 21:52 | 16.12835 | -61.80978 | 28333 ft | 432 kts | 176° |
| 2026-05-05 21:53 | 16.09833 | -61.80774 | 28683 ft | 434 kts | 176° |
| 2026-05-05 21:53 | 16.06813 | -61.80568 | 29042 ft | 437 kts | 176° |
| 2026-05-05 21:53 | 16.03741 | -61.80359 | 29392 ft | 439 kts | 176° |
| 2026-05-05 21:53 | 16.00696 | -61.80152 | 29711 ft | 442 kts | 176° |
| 2026-05-05 21:54 | 15.97618 | -61.79943 | 29998 ft | 445 kts | 176° |
| 2026-05-05 21:54 | 15.94520 | -61.79732 | 30303 ft | 448 kts | 176° |
| 2026-05-05 21:54 | 15.91400 | -61.79520 | 30617 ft | 450 kts | 176° |
| 2026-05-05 21:54 | 15.88224 | -61.79304 | 30911 ft | 452 kts | 176° |
| 2026-05-05 21:55 | 15.85081 | -61.79091 | 31285 ft | 453 kts | 176° |
| 2026-05-05 21:55 | 15.81935 | -61.78878 | 31686 ft | 452 kts | 176° |
| 2026-05-05 21:55 | 15.78794 | -61.78664 | 32066 ft | 452 kts | 176° |
| 2026-05-05 21:55 | 15.75651 | -61.78451 | 32430 ft | 452 kts | 176° |
| 2026-05-05 21:56 | 15.72469 | -61.78235 | 32820 ft | 452 kts | 176° |
| 2026-05-05 21:56 | 15.69336 | -61.78023 | 33242 ft | 452 kts | 176° |
| 2026-05-05 21:56 | 15.66216 | -61.77811 | 33680 ft | 451 kts | 177° |
| 2026-05-05 21:56 | 15.63020 | -61.77594 | 34126 ft | 450 kts | 176° |
| 2026-05-05 21:57 | 15.59896 | -61.77383 | 34557 ft | 448 kts | 177° |
| 2026-05-05 21:57 | 15.56816 | -61.77174 | 34972 ft | 447 kts | 177° |
| 2026-05-05 21:57 | 15.53693 | -61.76963 | 35368 ft | 446 kts | 177° |
| 2026-05-05 21:57 | 15.50583 | -61.76752 | 35728 ft | 445 kts | 177° |
| 2026-05-05 21:58 | 15.47473 | -61.76541 | 36064 ft | 444 kts | 177° |
| 2026-05-05 21:58 | 15.44367 | -61.76332 | 36361 ft | 444 kts | 177° |
| 2026-05-05 21:58 | 15.41248 | -61.76121 | 36596 ft | 445 kts | 177° |
| 2026-05-05 21:58 | 15.38131 | -61.75911 | 36807 ft | 447 kts | 177° |
| 2026-05-05 21:59 | 15.35033 | -61.75702 | 37015 ft | 448 kts | 177° |
| 2026-05-05 21:59 | 15.31880 | -61.75489 | 37221 ft | 449 kts | 177° |
| 2026-05-05 21:59 | 15.28741 | -61.75277 | 37419 ft | 450 kts | 177° |
| 2026-05-05 21:59 | 15.25622 | -61.75066 | 37613 ft | 451 kts | 177° |
| 2026-05-05 22:00 | 15.22458 | -61.74853 | 37805 ft | 451 kts | 177° |
| 2026-05-05 22:00 | 15.19322 | -61.74641 | 37978 ft | 452 kts | 177° |
| 2026-05-05 22:00 | 15.16170 | -61.74429 | 37999 ft | 453 kts | 177° |
| 2026-05-05 22:01 | 15.09873 | -61.74005 | 38003 ft | 453 kts | 177° |
| 2026-05-05 22:01 | 15.03523 | -61.73577 | 38003 ft | 454 kts | 177° |
| 2026-05-05 22:02 | 14.97203 | -61.73152 | 37999 ft | 454 kts | 177° |
| 2026-05-05 22:02 | 14.90923 | -61.72729 | 38002 ft | 454 kts | 177° |
| 2026-05-05 22:03 | 14.84555 | -61.72301 | 38003 ft | 455 kts | 177° |
| 2026-05-05 22:03 | 14.78225 | -61.71875 | 38003 ft | 455 kts | 177° |
| 2026-05-05 22:04 | 14.71890 | -61.71449 | 38002 ft | 455 kts | 177° |
| 2026-05-05 22:04 | 14.65521 | -61.71021 | 38001 ft | 456 kts | 177° |
| 2026-05-05 22:05 | 14.59170 | -61.70595 | 38000 ft | 457 kts | 176° |
| 2026-05-05 22:05 | 14.52777 | -61.70166 | 38000 ft | 457 kts | 176° |
| 2026-05-05 22:06 | 14.46389 | -61.69737 | 37999 ft | 457 kts | 176° |
| 2026-05-05 22:06 | 14.39978 | -61.69309 | 38000 ft | 457 kts | 176° |
| 2026-05-05 22:07 | 14.33604 | -61.68882 | 37999 ft | 458 kts | 176° |
| 2026-05-05 22:07 | 14.27235 | -61.68460 | 37998 ft | 458 kts | 176° |
| 2026-05-05 22:08 | 14.20860 | -61.68036 | 37998 ft | 458 kts | 176° |
| 2026-05-05 22:08 | 14.14481 | -61.67609 | 37997 ft | 458 kts | 176° |
| 2026-05-05 22:09 | 14.08120 | -61.67185 | 37997 ft | 458 kts | 176° |
| 2026-05-05 22:09 | 14.01711 | -61.66757 | 37996 ft | 458 kts | 176° |
| 2026-05-05 22:10 | 13.95349 | -61.66333 | 37992 ft | 458 kts | 176° |
| 2026-05-05 22:10 | 13.88912 | -61.65903 | 37995 ft | 458 kts | 176° |
| 2026-05-05 22:11 | 13.82550 | -61.65479 | 37990 ft | 459 kts | 176° |
| 2026-05-05 22:11 | 13.76187 | -61.65055 | 37992 ft | 459 kts | 176° |
| 2026-05-05 22:12 | 13.69797 | -61.64629 | 37990 ft | 459 kts | 176° |
| 2026-05-05 22:12 | 13.63329 | -61.64199 | 37988 ft | 459 kts | 176° |
| 2026-05-05 22:12 | 13.60156 | -61.63988 | 37780 ft | 458 kts | 176° |
| 2026-05-05 22:13 | 13.56968 | -61.63777 | 37083 ft | 460 kts | 176° |
| 2026-05-05 22:13 | 13.53758 | -61.63564 | 36308 ft | 459 kts | 176° |
| 2026-05-05 22:13 | 13.50573 | -61.63353 | 35543 ft | 459 kts | 176° |
| 2026-05-05 22:13 | 13.47374 | -61.63141 | 34774 ft | 458 kts | 176° |
| 2026-05-05 22:14 | 13.44193 | -61.62930 | 34014 ft | 458 kts | 175° |
| 2026-05-05 22:14 | 13.41018 | -61.62719 | 33260 ft | 457 kts | 175° |
| 2026-05-05 22:14 | 13.37836 | -61.62508 | 32523 ft | 458 kts | 175° |
| 2026-05-05 22:14 | 13.34626 | -61.62294 | 31857 ft | 461 kts | 175° |
| 2026-05-05 22:15 | 13.31378 | -61.62077 | 31190 ft | 462 kts | 176° |
| 2026-05-05 22:15 | 13.28166 | -61.61862 | 30534 ft | 462 kts | 176° |
| 2026-05-05 22:15 | 13.24982 | -61.61650 | 29883 ft | 459 kts | 176° |
| 2026-05-05 22:15 | 13.21794 | -61.61438 | 29230 ft | 457 kts | 176° |
| 2026-05-05 22:16 | 13.18620 | -61.61227 | 28581 ft | 454 kts | 176° |
| 2026-05-05 22:16 | 13.15460 | -61.61018 | 27946 ft | 452 kts | 176° |
| 2026-05-05 22:16 | 13.12321 | -61.60812 | 27313 ft | 449 kts | 176° |
| 2026-05-05 22:16 | 13.09211 | -61.60609 | 26686 ft | 446 kts | 176° |
| 2026-05-05 22:17 | 13.06107 | -61.60404 | 26057 ft | 444 kts | 176° |
| 2026-05-05 22:17 | 13.03023 | -61.60201 | 25429 ft | 441 kts | 176° |
| 2026-05-05 22:17 | 12.99959 | -61.59998 | 24799 ft | 439 kts | 176° |
| 2026-05-05 22:17 | 12.96927 | -61.59798 | 24174 ft | 437 kts | 176° |
| 2026-05-05 22:18 | 12.93875 | -61.59595 | 23545 ft | 434 kts | 176° |
| 2026-05-05 22:18 | 12.90846 | -61.59395 | 22924 ft | 432 kts | 176° |
| 2026-05-05 22:18 | 12.87846 | -61.59197 | 22306 ft | 430 kts | 176° |
| 2026-05-05 22:18 | 12.84860 | -61.58998 | 21714 ft | 428 kts | 176° |
| 2026-05-05 22:19 | 12.81887 | -61.58802 | 21112 ft | 422 kts | 176° |
| 2026-05-05 22:19 | 12.78975 | -61.58609 | 20510 ft | 413 kts | 175° |
| 2026-05-05 22:19 | 12.76138 | -61.58421 | 19909 ft | 404 kts | 175° |
| 2026-05-05 22:19 | 12.73325 | -61.58234 | 19299 ft | 396 kts | 175° |
| 2026-05-05 22:20 | 12.70624 | -61.58055 | 18702 ft | 389 kts | 175° |
| 2026-05-05 22:20 | 12.67950 | -61.57878 | 18095 ft | 382 kts | 175° |
| 2026-05-05 22:20 | 12.65319 | -61.57704 | 17487 ft | 377 kts | 175° |
| 2026-05-05 22:20 | 12.62708 | -61.57532 | 16863 ft | 374 kts | 175° |
| 2026-05-05 22:21 | 12.60115 | -61.57361 | 16301 ft | 370 kts | 174° |
| 2026-05-05 22:21 | 12.57554 | -61.57190 | 15823 ft | 369 kts | 174° |
| 2026-05-05 22:21 | 12.54985 | -61.57020 | 15195 ft | 364 kts | 174° |
| 2026-05-05 22:21 | 12.52458 | -61.56855 | 14574 ft | 360 kts | 173° |
| 2026-05-05 22:22 | 12.49961 | -61.56690 | 14138 ft | 357 kts | 173° |
| 2026-05-05 22:22 | 12.47475 | -61.56567 | 13986 ft | 358 kts | 179° |
| 2026-05-05 22:22 | 12.45021 | -61.57182 | 13974 ft | 367 kts | 205° |
| 2026-05-05 22:22 | 12.43041 | -61.58801 | 13992 ft | 372 kts | 226° |
| 2026-05-05 22:23 | 12.41353 | -61.60830 | 13939 ft | 372 kts | 229° |
| 2026-05-05 22:23 | 12.39684 | -61.62899 | 13372 ft | 371 kts | 229° |
| 2026-05-05 22:23 | 12.38040 | -61.64906 | 12757 ft | 366 kts | 228° |
| 2026-05-05 22:23 | 12.36389 | -61.66881 | 12140 ft | 360 kts | 227° |
| 2026-05-05 22:24 | 12.34764 | -61.68796 | 11529 ft | 355 kts | 227° |
| 2026-05-05 22:24 | 12.33151 | -61.70684 | 10913 ft | 351 kts | 227° |
| 2026-05-05 22:24 | 12.31539 | -61.72563 | 10282 ft | 346 kts | 226° |
| 2026-05-05 22:24 | 12.29970 | -61.74390 | 9653 ft | 339 kts | 226° |
| 2026-05-05 22:25 | 12.28442 | -61.76168 | 9019 ft | 330 kts | 226° |
| 2026-05-05 22:25 | 12.26949 | -61.77904 | 8377 ft | 320 kts | 226° |
| 2026-05-05 22:25 | 12.25503 | -61.79586 | 7734 ft | 312 kts | 226° |
| 2026-05-05 22:25 | 12.24071 | -61.81252 | 7081 ft | 304 kts | 226° |
| 2026-05-05 22:26 | 12.22713 | -61.82836 | 6716 ft | 288 kts | 226° |
| 2026-05-05 22:26 | 12.21394 | -61.84372 | 6521 ft | 287 kts | 226° |
| 2026-05-05 22:26 | 12.20085 | -61.85896 | 6261 ft | 280 kts | 226° |
| 2026-05-05 22:26 | 12.18844 | -61.87346 | 5974 ft | 264 kts | 226° |
| 2026-05-05 22:27 | 12.17652 | -61.88735 | 5683 ft | 256 kts | 226° |
| 2026-05-05 22:27 | 12.16488 | -61.90088 | 5436 ft | 250 kts | 225° |
| 2026-05-05 22:27 | 12.15353 | -61.91409 | 5208 ft | 245 kts | 225° |
| 2026-05-05 22:27 | 12.14223 | -61.92722 | 4908 ft | 244 kts | 225° |
| 2026-05-05 22:28 | 12.13104 | -61.94024 | 4662 ft | 240 kts | 225° |
| 2026-05-05 22:28 | 12.12010 | -61.95296 | 4410 ft | 237 kts | 225° |
| 2026-05-05 22:28 | 12.10849 | -61.96503 | 4041 ft | 235 kts | 210° |
| 2026-05-05 22:28 | 12.09365 | -61.97076 | 3675 ft | 225 kts | 180° |
| 2026-05-05 22:29 | 12.07813 | -61.97104 | 3339 ft | 223 kts | 173° |
| 2026-05-05 22:29 | 12.06224 | -61.97074 | 2970 ft | 225 kts | 173° |
| 2026-05-05 22:29 | 12.04659 | -61.97052 | 2613 ft | 226 kts | 174° |
| 2026-05-05 22:29 | 12.03088 | -61.97040 | 2351 ft | 222 kts | 171° |
| 2026-05-05 22:30 | 12.01685 | -61.96574 | 2170 ft | 200 kts | 136° |
| 2026-05-05 22:30 | 12.00908 | -61.95494 | 2066 ft | 186 kts | 109° |
| 2026-05-05 22:30 | 12.00609 | -61.94286 | 2019 ft | 166 kts | 97° |
| 2026-05-05 22:30 | 12.00518 | -61.93179 | 1867 ft | 148 kts | 92° |
| 2026-05-05 22:31 | 12.00491 | -61.92188 | 1708 ft | 132 kts | 91° |
| 2026-05-05 22:31 | 12.00482 | -61.91256 | 1714 ft | 130 kts | 91° |
| 2026-05-05 22:31 | 12.00476 | -61.90329 | 1685 ft | 129 kts | 90° |
| 2026-05-05 22:31 | 12.00471 | -61.89416 | 1675 ft | 130 kts | 91° |
| 2026-05-05 22:32 | 12.00466 | -61.88491 | 1658 ft | 130 kts | 91° |
| 2026-05-05 22:32 | 12.00462 | -61.87570 | 1486 ft | 128 kts | 91° |
| 2026-05-05 22:32 | 12.00457 | -61.86671 | 1310 ft | 126 kts | 91° |
| 2026-05-05 22:32 | 12.00452 | -61.85776 | 1148 ft | 125 kts | 91° |
| 2026-05-05 22:33 | 12.00447 | -61.84884 | 979 ft | 125 kts | 92° |
| 2026-05-05 22:33 | 12.00442 | -61.83994 | 814 ft | 125 kts | 92° |
| 2026-05-05 22:33 | 12.00426 | -61.83102 | 639 ft | 124 kts | 94° |
| 2026-05-05 22:33 | 12.00412 | -61.82222 | 461 ft | 124 kts | 92° |
| 2026-05-05 22:34 | 12.00419 | -61.81347 | 318 ft | 123 kts | 92° |
| 2026-05-05 22:34 | 12.00414 | -61.80470 | 166 ft | 123 kts | 93° |
| 2026-05-05 22:34 | 12.00411 | -61.79602 | 47 ft | 119 kts | 93° |
| 2026-05-05 22:34 | 12.00404 | -61.78869 | 43 ft | 84 kts | 90° |
| 2026-05-05 22:35 | 12.00397 | -61.78375 | 38 ft | 58 kts | 84° |
| 2026-05-05 22:35 | 12.00408 | -61.78010 | 37 ft | 32 kts | 81° |
| 2026-05-05 22:35 | 12.00396 | -61.77942 | 38 ft | 6 kts | 247° |
| 2026-05-05 22:35 | 12.00398 | -61.77994 | 37 ft | 8 kts | 272° |
| 2026-05-05 22:36 | 12.00400 | -61.78064 | 37 ft | 10 kts | 271° |
| 2026-05-05 22:36 | 12.00400 | -61.78153 | 37 ft | 15 kts | 270° |
| 2026-05-05 22:36 | 12.00399 | -61.78292 | 37 ft | 22 kts | 270° |
| 2026-05-05 22:36 | 12.00398 | -61.78474 | 39 ft | 28 kts | 270° |
| 2026-05-05 22:37 | 12.00465 | -61.78596 | 41 ft | 12 kts | 3° |
| 2026-05-05 22:37 | 12.00553 | -61.78587 | 41 ft | 12 kts | 14° |
| 2026-05-05 22:37 | 12.00634 | -61.78576 | 41 ft | 7 kts | 359° |
| 2026-05-05 22:37 | 12.00653 | -61.78576 | 41 ft | 0 kts | 359° |